Aviation Digital Data Service (ADDS)

Output produced by METARs form (0749 UTC 05 July 2015)
found at http://aviationweather.gov/adds/metars/
 
KJHW 050520Z 0506/0606 00000KT 6SM BR FEW250 
     FM050900 00000KT 3SM BR SKC 
     FM051300 00000KT P6SM SKC 
     FM052000 34004KT P6SM FEW250 
     FM060100 VRB03KT P6SM SCT250 AMD LTD TO CLD VIS AND WIND